createdAt,value
2022-08-21T00:01:53.181Z,16.30
2022-08-21T00:04:22.747Z,16.40
2022-08-21T00:06:57.211Z,16.40
2022-08-21T00:09:25.086Z,16.30
2022-08-21T00:11:53.019Z,16.30
2022-08-21T00:14:20.894Z,16.30
2022-08-21T00:16:49.139Z,16.30
2022-08-21T00:19:17.001Z,16.20
2022-08-21T00:21:46.442Z,16.20
2022-08-21T00:24:14.334Z,16.10
2022-08-21T00:26:43.710Z,16.10
2022-08-21T00:29:11.593Z,16.20
2022-08-21T00:31:39.448Z,16.10
2022-08-21T00:34:07.776Z,16.10
2022-08-21T00:36:36.017Z,16.10
2022-08-21T00:39:05.564Z,16.20
2022-08-21T00:41:37.152Z,16.10
2022-08-21T00:44:06.045Z,16.10
2022-08-21T00:46:33.920Z,16.00
2022-08-21T00:49:01.793Z,16.10
2022-08-21T00:51:33.218Z,16.00
2022-08-21T00:54:18.246Z,15.90
2022-08-21T00:56:47.669Z,16.00
2022-08-21T00:59:16.484Z,16.10
2022-08-21T01:01:44.332Z,16.00
2022-08-21T01:04:12.187Z,15.90
2022-08-21T01:06:40.303Z,15.90
2022-08-21T01:09:09.834Z,15.90
2022-08-21T01:11:37.947Z,15.90
2022-08-21T01:14:05.916Z,15.90
2022-08-21T01:16:33.850Z,15.80
2022-08-21T01:19:01.706Z,15.80
2022-08-21T01:21:30.934Z,15.80
2022-08-21T01:23:58.905Z,15.70
2022-08-21T01:26:33.731Z,15.70
2022-08-21T01:29:03.595Z,15.80
2022-08-21T01:31:32.493Z,15.70
2022-08-21T01:34:00.361Z,15.60
2022-08-21T01:40:17.750Z,15.70
2022-08-21T01:42:45.827Z,15.80
2022-08-21T01:45:14.140Z,16.00
2022-08-21T01:47:42.088Z,15.90
2022-08-21T01:50:11.709Z,15.80
2022-08-21T01:52:39.598Z,15.70
2022-08-21T01:55:08.568Z,15.50
2022-08-21T01:57:37.747Z,15.50
2022-08-21T02:00:06.591Z,15.40
2022-08-21T02:02:34.478Z,15.50
2022-08-21T02:05:02.351Z,15.40
2022-08-21T02:07:30.234Z,15.40
2022-08-21T02:09:58.094Z,15.50
2022-08-21T02:12:25.990Z,15.40
2022-08-21T02:14:55.149Z,15.40
2022-08-21T02:17:23.643Z,15.40
2022-08-21T02:19:51.520Z,15.40
2022-08-21T02:22:19.529Z,15.40
2022-08-21T02:24:53.936Z,15.50
2022-08-21T02:27:26.057Z,15.50
2022-08-21T02:29:57.352Z,15.40
2022-08-21T02:32:25.235Z,15.40
2022-08-21T02:34:53.287Z,15.30
2022-08-21T02:37:21.212Z,15.30
2022-08-21T02:39:49.070Z,15.30
2022-08-21T02:42:17.092Z,15.20
2022-08-21T02:44:44.929Z,15.30
2022-08-21T02:47:14.091Z,15.20
2022-08-21T02:49:41.926Z,15.20
2022-08-21T02:52:09.740Z,15.10
2022-08-21T02:54:37.595Z,15.10
2022-08-21T02:57:05.555Z,15.00
2022-08-21T02:59:33.464Z,14.90
2022-08-21T03:02:01.431Z,15.00
2022-08-21T03:04:30.658Z,14.90
2022-08-21T03:06:58.554Z,14.90
2022-08-21T03:09:26.565Z,14.90
2022-08-21T03:11:55.023Z,14.80
2022-08-21T03:14:22.836Z,14.90
2022-08-21T03:16:50.757Z,14.80
2022-08-21T03:19:18.547Z,14.90
2022-08-21T03:21:47.755Z,14.90
2022-08-21T03:24:15.661Z,15.00
2022-08-21T03:26:46.739Z,14.90
2022-08-21T03:29:14.650Z,14.90
2022-08-21T03:31:42.617Z,15.00
2022-08-21T03:34:11.712Z,15.00
2022-08-21T03:36:39.639Z,14.90
2022-08-21T03:39:08.980Z,14.90
2022-08-21T03:41:36.977Z,15.00
2022-08-21T03:44:05.223Z,14.90
2022-08-21T03:46:33.024Z,14.90
2022-08-21T03:49:00.959Z,14.90
2022-08-21T03:51:28.830Z,14.90
2022-08-21T03:53:56.721Z,15.00
2022-08-21T03:56:26.041Z,15.00
2022-08-21T03:58:54.043Z,15.00
2022-08-21T04:01:22.076Z,15.00
2022-08-21T04:03:50.160Z,15.00
2022-08-21T04:06:18.945Z,15.00
2022-08-21T04:08:47.096Z,15.00
2022-08-21T04:11:15.893Z,14.80
2022-08-21T04:13:45.449Z,14.70
2022-08-21T04:16:14.085Z,14.80
2022-08-21T04:18:42.125Z,14.70
2022-08-21T04:21:11.050Z,14.70
2022-08-21T04:23:39.487Z,14.80
2022-08-21T04:26:07.850Z,14.80
2022-08-21T04:28:36.265Z,14.90
2022-08-21T04:31:06.281Z,14.90
2022-08-21T04:33:34.274Z,14.90
2022-08-21T04:36:02.748Z,14.90
2022-08-21T04:38:36.612Z,14.80
2022-08-21T04:41:06.481Z,14.70
2022-08-21T04:43:34.725Z,14.70
2022-08-21T04:46:03.119Z,14.80
2022-08-21T04:48:33.715Z,14.70
2022-08-21T04:51:04.068Z,14.80
2022-08-21T04:53:37.080Z,14.80
2022-08-21T04:56:09.649Z,14.60
2022-08-21T04:58:38.202Z,14.70
2022-08-21T05:01:07.655Z,14.70
2022-08-21T05:07:42.518Z,14.70
2022-08-21T05:10:12.596Z,14.80
2022-08-21T05:12:43.045Z,14.70
2022-08-21T05:15:13.468Z,14.70
2022-08-21T05:17:42.112Z,14.70
2022-08-21T05:20:11.090Z,14.80
2022-08-21T05:22:40.499Z,14.60
2022-08-21T05:25:10.557Z,14.70
2022-08-21T05:27:39.778Z,14.90
2022-08-21T05:30:12.273Z,14.90
2022-08-21T05:32:40.467Z,15.10
2022-08-21T05:35:09.212Z,15.10
2022-08-21T05:37:37.428Z,15.20
2022-08-21T05:40:22.671Z,15.00
2022-08-21T05:42:55.105Z,15.10
2022-08-21T05:45:31.604Z,15.20
2022-08-21T05:48:10.525Z,15.30
2022-08-21T05:50:39.186Z,15.10
2022-08-21T05:53:07.942Z,15.10
2022-08-21T05:55:42.687Z,15.10
2022-08-21T05:58:13.329Z,15.10
2022-08-21T06:00:41.857Z,15.10
2022-08-21T06:03:13.765Z,15.30
2022-08-21T06:05:42.323Z,15.30
2022-08-21T06:08:10.668Z,15.50
2022-08-21T06:10:40.390Z,15.60
2022-08-21T06:13:08.561Z,15.80
2022-08-21T06:15:36.774Z,15.90
2022-08-21T06:18:05.510Z,16.00
2022-08-21T06:20:33.677Z,16.00
2022-08-21T06:23:01.971Z,16.10
2022-08-21T06:25:30.563Z,16.10
2022-08-21T06:28:04.927Z,16.20
2022-08-21T06:30:33.383Z,16.20
2022-08-21T06:33:01.653Z,16.30
2022-08-21T06:35:30.625Z,16.40
2022-08-21T06:37:59.118Z,16.50
2022-08-21T06:40:27.541Z,16.80
2022-08-21T06:42:58.597Z,16.90
2022-08-21T06:45:32.279Z,17.10
2022-08-21T06:48:01.041Z,17.20
2022-08-21T06:50:29.397Z,17.30
2022-08-21T06:53:03.901Z,17.40
2022-08-21T06:55:32.331Z,17.50
2022-08-21T06:58:00.793Z,17.60
2022-08-21T07:00:40.671Z,17.60
2022-08-21T07:03:09.023Z,17.60
2022-08-21T07:05:37.024Z,17.70
2022-08-21T07:08:06.219Z,17.80
2022-08-21T07:10:34.224Z,17.60
2022-08-21T07:13:03.184Z,17.80
2022-08-21T07:15:31.633Z,17.80
2022-08-21T07:18:01.559Z,17.90
2022-08-21T07:20:29.853Z,17.90
2022-08-21T07:22:58.107Z,18.10
2022-08-21T07:25:26.455Z,18.10
2022-08-21T07:28:15.702Z,18.20
2022-08-21T07:30:43.721Z,18.30
2022-08-21T07:33:13.163Z,18.30
2022-08-21T07:35:41.401Z,18.40
2022-08-21T07:38:09.444Z,18.40
2022-08-21T07:40:43.755Z,18.60
2022-08-21T07:44:08.145Z,19.00
2022-08-21T07:46:35.923Z,19.40
2022-08-21T07:49:05.674Z,19.90
2022-08-21T07:51:34.532Z,20.30
2022-08-21T07:54:02.416Z,20.50
2022-08-21T07:56:30.476Z,20.80
2022-08-21T07:58:58.828Z,21.10
2022-08-21T08:01:26.812Z,21.00
2022-08-21T08:03:54.746Z,21.10
2022-08-21T08:06:24.120Z,21.40
2022-08-21T08:08:51.948Z,21.90
2022-08-21T08:11:19.802Z,22.20
2022-08-21T08:13:48.858Z,22.30
2022-08-21T08:16:16.650Z,22.40
2022-08-21T08:18:45.627Z,22.40
2022-08-21T08:21:13.880Z,22.60
2022-08-21T08:27:29.798Z,23.00
2022-08-21T08:29:57.638Z,22.60
2022-08-21T08:32:25.474Z,22.80
2022-08-21T08:34:53.407Z,23.10
2022-08-21T08:37:21.501Z,23.40
2022-08-21T08:40:27.542Z,23.50
2022-08-21T08:42:56.995Z,23.80
2022-08-21T08:45:27.213Z,23.70
2022-08-21T08:47:58.815Z,24.20
2022-08-21T08:50:30.058Z,24.30
2022-08-21T08:53:01.097Z,24.40
2022-08-21T08:55:32.720Z,24.70
2022-08-21T08:58:03.610Z,24.90
2022-08-21T09:00:31.918Z,24.70
2022-08-21T09:03:01.436Z,24.90
2022-08-21T09:05:30.429Z,25.00
2022-08-21T09:08:18.850Z,24.80
2022-08-21T09:10:50.919Z,24.50
2022-08-21T09:13:23.032Z,24.70
2022-08-21T09:15:55.596Z,25.00
2022-08-21T09:18:31.751Z,25.40
2022-08-21T09:21:05.813Z,25.70
2022-08-21T09:23:36.663Z,25.50
2022-08-21T09:26:08.297Z,25.40
2022-08-21T09:28:37.580Z,25.20
2022-08-21T09:31:08.060Z,25.10
2022-08-21T09:33:35.970Z,25.60
2022-08-21T09:36:04.039Z,25.40
2022-08-21T09:38:33.808Z,25.50
2022-08-21T09:41:04.967Z,25.50
2022-08-21T09:43:33.174Z,25.90
2022-08-21T09:46:08.764Z,26.00
2022-08-21T09:48:44.872Z,26.40
2022-08-21T09:51:15.540Z,26.00
2022-08-21T09:53:46.517Z,26.10
2022-08-21T09:56:45.766Z,25.90
2022-08-21T09:59:21.587Z,25.80
2022-08-21T10:01:51.915Z,25.90
2022-08-21T10:04:22.745Z,25.90
2022-08-21T10:06:50.708Z,26.70
2022-08-21T10:09:21.626Z,26.80
2022-08-21T10:11:58.417Z,26.70
2022-08-21T10:14:40.021Z,26.90
2022-08-21T10:17:12.368Z,26.50
2022-08-21T10:19:42.919Z,26.70
2022-08-21T10:22:17.820Z,26.80
2022-08-21T10:24:48.469Z,26.90
2022-08-21T10:27:18.515Z,26.70
2022-08-21T10:29:51.252Z,26.40
2022-08-21T10:32:39.746Z,26.50
2022-08-21T10:35:12.072Z,26.60
2022-08-21T10:37:50.577Z,26.90
2022-08-21T10:40:23.622Z,26.00
2022-08-21T10:42:56.632Z,25.40
2022-08-21T10:45:32.482Z,25.00
2022-08-21T10:48:03.775Z,24.30
2022-08-21T10:50:33.429Z,24.20
2022-08-21T10:53:28.367Z,23.90
2022-08-21T10:55:58.616Z,23.50
2022-08-21T10:58:29.169Z,23.00
2022-08-21T11:00:59.190Z,22.90
2022-08-21T11:03:31.261Z,22.70
2022-08-21T11:06:01.743Z,22.60
2022-08-21T11:08:32.140Z,23.00
2022-08-21T11:11:02.789Z,24.10
2022-08-21T11:13:35.261Z,24.60
2022-08-21T11:16:06.127Z,24.70
2022-08-21T11:18:36.863Z,25.00
2022-08-21T11:21:14.524Z,25.10
2022-08-21T11:23:44.599Z,25.30
2022-08-21T11:26:16.808Z,25.60
2022-08-21T11:28:47.510Z,25.80
2022-08-21T11:31:29.377Z,26.10
2022-08-21T11:34:09.407Z,26.00
2022-08-21T11:36:42.104Z,26.00
2022-08-21T11:39:17.566Z,25.70
2022-08-21T11:41:48.152Z,26.00
2022-08-21T11:44:19.164Z,26.30
2022-08-21T11:46:50.546Z,26.40
2022-08-21T11:49:36.060Z,26.40
2022-08-21T11:52:09.740Z,26.20
2022-08-21T11:54:39.148Z,26.50
2022-08-21T11:57:08.970Z,26.50
2022-08-21T11:59:40.873Z,26.50
2022-08-21T12:02:11.279Z,26.50
2022-08-21T12:04:46.901Z,26.70
2022-08-21T12:07:17.234Z,26.50
2022-08-21T12:13:39.852Z,26.90
2022-08-21T12:16:11.580Z,26.70
2022-08-21T12:18:39.831Z,26.50
2022-08-21T12:21:22.931Z,26.70
2022-08-21T12:23:51.684Z,26.60
2022-08-21T12:26:30.935Z,26.50
2022-08-21T12:29:26.037Z,26.90
2022-08-21T12:31:57.015Z,26.80
2022-08-21T12:34:27.006Z,26.80
2022-08-21T12:36:59.825Z,26.40
2022-08-21T12:39:29.358Z,26.30
2022-08-21T12:42:02.033Z,26.50
2022-08-21T12:44:34.847Z,26.70
2022-08-21T12:47:05.534Z,26.70
2022-08-21T12:49:35.029Z,26.90
2022-08-21T12:52:10.313Z,26.60
2022-08-21T12:54:41.029Z,27.10
2022-08-21T12:57:09.199Z,27.10
2022-08-21T12:59:39.785Z,27.20
2022-08-21T13:02:18.968Z,26.90
2022-08-21T13:04:46.831Z,27.00
2022-08-21T13:07:24.608Z,26.70
2022-08-21T13:09:57.367Z,26.70
2022-08-21T13:12:27.758Z,26.60
2022-08-21T13:15:09.251Z,26.90
2022-08-21T13:17:38.765Z,27.00
2022-08-21T13:20:08.745Z,27.10
2022-08-21T13:22:43.204Z,27.30
2022-08-21T13:25:12.170Z,27.00
2022-08-21T13:27:39.944Z,27.00
2022-08-21T13:30:13.692Z,27.00
2022-08-21T13:32:47.011Z,26.90
2022-08-21T13:35:20.168Z,26.70
2022-08-21T13:37:50.847Z,26.90
2022-08-21T13:40:25.401Z,26.70
2022-08-21T13:42:53.309Z,26.60
2022-08-21T13:45:27.057Z,26.80
2022-08-21T13:47:55.028Z,26.90
2022-08-21T13:50:23.919Z,26.80
2022-08-21T13:56:45.282Z,26.70
2022-08-21T13:59:13.176Z,26.80
2022-08-21T14:01:50.441Z,26.70
2022-08-21T14:04:20.777Z,26.90
2022-08-21T14:06:50.823Z,26.70
2022-08-21T14:09:27.813Z,26.70
2022-08-21T14:11:57.013Z,26.90
2022-08-21T14:14:26.057Z,26.40
2022-08-21T14:16:56.318Z,26.30
2022-08-21T14:19:25.353Z,26.60
2022-08-21T14:21:55.240Z,26.40
2022-08-21T14:24:30.465Z,26.20
2022-08-21T14:27:03.266Z,26.30
2022-08-21T14:29:35.408Z,26.00
2022-08-21T14:32:21.880Z,26.10
2022-08-21T14:34:52.736Z,26.20
2022-08-21T14:37:22.624Z,25.80
2022-08-21T14:39:50.463Z,25.80
2022-08-21T14:42:19.813Z,25.90
2022-08-21T14:44:47.613Z,25.80
2022-08-21T14:47:15.520Z,25.90
2022-08-21T14:49:43.855Z,25.80
2022-08-21T14:52:11.656Z,26.00
2022-08-21T14:54:39.471Z,26.20
2022-08-21T14:57:09.635Z,26.10
2022-08-21T14:59:38.881Z,25.60
2022-08-21T15:02:06.905Z,25.60
2022-08-21T15:04:34.924Z,25.80
2022-08-21T15:07:02.866Z,25.90
2022-08-21T15:09:30.683Z,26.00
2022-08-21T15:12:00.530Z,25.70
2022-08-21T15:14:29.340Z,25.60
2022-08-21T15:20:45.179Z,25.80
2022-08-21T15:23:15.058Z,25.70
2022-08-21T15:25:43.023Z,25.60
2022-08-21T15:28:10.913Z,25.50
2022-08-21T15:30:39.107Z,25.40
2022-08-21T15:33:07.192Z,25.10
2022-08-21T15:35:35.150Z,25.20
2022-08-21T15:38:04.528Z,25.40
2022-08-21T15:40:32.505Z,25.20
2022-08-21T15:43:01.655Z,25.00
2022-08-21T15:45:29.930Z,25.00
2022-08-21T15:47:57.896Z,25.20
2022-08-21T15:50:26.946Z,25.10
2022-08-21T15:52:54.838Z,25.10
2022-08-21T15:55:27.477Z,25.10
2022-08-21T15:57:57.197Z,25.00
2022-08-21T16:00:26.595Z,25.10
2022-08-21T16:02:55.388Z,24.80
2022-08-21T16:05:23.649Z,24.80
2022-08-21T16:07:51.884Z,24.90
2022-08-21T16:10:21.280Z,24.70
2022-08-21T16:12:52.504Z,24.60
2022-08-21T16:15:20.811Z,24.60
2022-08-21T16:17:49.573Z,24.80
2022-08-21T16:20:19.008Z,24.50
2022-08-21T16:22:47.054Z,24.40
2022-08-21T16:25:15.673Z,24.40
2022-08-21T16:27:47.208Z,24.40
2022-08-21T16:30:16.650Z,24.30
2022-08-21T16:32:44.517Z,24.40
2022-08-21T16:35:13.501Z,24.30
2022-08-21T16:37:41.467Z,24.40
2022-08-21T16:40:10.869Z,24.30
2022-08-21T16:42:38.785Z,24.40
2022-08-21T16:45:08.162Z,24.20
2022-08-21T16:47:37.390Z,23.80
2022-08-21T16:50:07.338Z,23.70
2022-08-21T16:52:35.208Z,23.70
2022-08-21T16:55:03.080Z,23.60
2022-08-21T16:57:30.994Z,23.50
2022-08-21T16:59:58.801Z,23.50
2022-08-21T17:02:30.633Z,23.40
2022-08-21T17:05:01.164Z,23.20
2022-08-21T17:07:29.180Z,23.10
2022-08-21T17:09:57.063Z,23.10
2022-08-21T17:12:24.956Z,23.00
2022-08-21T17:14:52.826Z,23.00
2022-08-21T17:17:20.652Z,23.10
2022-08-21T17:19:48.514Z,23.10
2022-08-21T17:22:17.703Z,23.10
2022-08-21T17:24:47.441Z,23.00
2022-08-21T17:27:15.288Z,22.80
2022-08-21T17:29:43.195Z,22.70
2022-08-21T17:32:12.326Z,22.60
2022-08-21T17:34:40.208Z,22.60
2022-08-21T17:37:08.324Z,22.70
2022-08-21T17:39:37.663Z,22.70
2022-08-21T17:42:08.204Z,22.50
2022-08-21T17:44:36.154Z,22.60
2022-08-21T17:47:04.126Z,22.50
2022-08-21T17:49:32.047Z,22.50
2022-08-21T17:52:00.372Z,22.40
2022-08-21T17:54:28.302Z,22.40
2022-08-21T17:56:57.665Z,22.40
2022-08-21T17:59:25.526Z,22.40
2022-08-21T18:01:54.434Z,22.30
2022-08-21T18:04:22.457Z,22.30
2022-08-21T18:06:50.334Z,22.20
2022-08-21T18:09:18.397Z,22.10
2022-08-21T18:11:46.247Z,22.10
2022-08-21T18:14:15.500Z,22.00
2022-08-21T18:16:43.509Z,22.00
2022-08-21T18:19:15.386Z,21.90
2022-08-21T18:21:43.323Z,21.80
2022-08-21T18:24:11.174Z,21.80
2022-08-21T18:26:39.387Z,21.70
2022-08-21T18:29:09.321Z,21.60
2022-08-21T18:31:39.196Z,21.50
2022-08-21T18:34:10.660Z,21.40
2022-08-21T18:36:39.196Z,21.40
2022-08-21T18:39:34.544Z,21.30
2022-08-21T18:41:55.086Z,21.30
2022-08-21T18:44:24.167Z,21.20
2022-08-21T18:46:55.524Z,21.10
2022-08-21T18:49:23.403Z,21.00
2022-08-21T18:51:52.060Z,21.00
2022-08-21T18:54:19.972Z,20.90
2022-08-21T18:56:47.860Z,20.70
2022-08-21T18:59:16.053Z,20.60
2022-08-21T19:01:43.963Z,20.50
2022-08-21T19:04:40.957Z,20.30
2022-08-21T19:07:05.344Z,20.20
2022-08-21T19:09:33.199Z,20.20
2022-08-21T19:12:04.168Z,20.20
2022-08-21T19:14:33.194Z,20.10
2022-08-21T19:17:01.049Z,19.90
2022-08-21T19:19:30.307Z,19.90
2022-08-21T19:21:58.538Z,19.80
2022-08-21T19:24:27.505Z,19.70
2022-08-21T19:26:55.882Z,19.70
2022-08-21T19:29:34.659Z,19.70
2022-08-21T19:32:04.572Z,19.60
2022-08-21T19:34:34.827Z,19.40
2022-08-21T19:37:02.713Z,19.40
2022-08-21T19:39:32.111Z,19.30
2022-08-21T19:42:00.211Z,19.30
2022-08-21T19:50:13.254Z,19.20
2022-08-21T19:52:51.233Z,19.20
2022-08-21T19:55:19.565Z,19.10
2022-08-21T19:57:47.499Z,18.90
2022-08-21T20:03:31.368Z,19.00
2022-08-21T20:06:00.469Z,18.90
2022-08-21T20:08:28.405Z,18.90
2022-08-21T20:10:57.011Z,18.80
2022-08-21T20:13:26.001Z,18.80
2022-08-21T20:15:54.279Z,18.90
2022-08-21T20:18:26.845Z,18.70
2022-08-21T20:20:54.956Z,18.60
2022-08-21T20:23:30.128Z,18.50
2022-08-21T20:25:58.519Z,18.40
2022-08-21T20:28:26.982Z,18.50
2022-08-21T20:30:56.430Z,18.30
2022-08-21T20:33:24.323Z,18.30
2022-08-21T20:35:52.216Z,18.20
2022-08-21T20:38:20.331Z,18.10
2022-08-21T20:40:51.253Z,18.10
2022-08-21T20:43:20.698Z,18.10
2022-08-21T20:45:48.663Z,18.10
2022-08-21T20:48:22.289Z,18.00
2022-08-21T20:50:54.414Z,17.90
2022-08-21T20:53:42.811Z,17.90
2022-08-21T20:56:15.726Z,17.70
2022-08-21T20:58:45.826Z,17.70
2022-08-21T21:01:14.162Z,17.70
2022-08-21T21:03:45.075Z,17.70
2022-08-21T21:06:14.766Z,17.70
2022-08-21T21:08:46.732Z,17.70
2022-08-21T21:11:17.893Z,17.60
2022-08-21T21:13:48.026Z,17.50
2022-08-21T21:16:18.719Z,17.30
2022-08-21T21:18:48.090Z,17.50
2022-08-21T21:21:19.721Z,17.50
2022-08-21T21:23:50.309Z,17.50
2022-08-21T21:26:22.027Z,17.50
2022-08-21T21:28:55.860Z,17.50
2022-08-21T21:31:24.423Z,17.50
2022-08-21T21:33:52.295Z,17.40
2022-08-21T21:36:27.965Z,17.30
2022-08-21T21:42:49.260Z,17.20
2022-08-21T21:45:20.614Z,17.30
2022-08-21T21:47:56.547Z,17.20
2022-08-21T21:50:34.880Z,17.20
2022-08-21T21:53:23.005Z,17.20
2022-08-21T21:56:07.901Z,17.20
2022-08-21T21:58:46.327Z,17.10
2022-08-21T22:01:16.928Z,17.10
2022-08-21T22:03:48.195Z,16.90
2022-08-21T22:06:18.311Z,16.90
2022-08-21T22:08:50.880Z,16.80
2022-08-21T22:11:28.621Z,16.80
2022-08-21T22:14:02.760Z,16.80
2022-08-21T22:16:31.597Z,16.60
2022-08-21T22:19:02.840Z,16.50
2022-08-21T22:21:35.467Z,16.50
2022-08-21T22:24:05.340Z,16.60
2022-08-21T22:26:38.171Z,16.80
2022-08-21T22:29:10.493Z,16.70
2022-08-21T22:31:38.512Z,16.50
2022-08-21T22:34:17.826Z,16.40
2022-08-21T22:36:47.967Z,16.30
2022-08-21T22:39:26.599Z,16.30
2022-08-21T22:41:54.413Z,16.50
2022-08-21T22:44:27.332Z,16.40
2022-08-21T22:46:56.756Z,16.20
2022-08-21T22:49:30.454Z,16.20
2022-08-21T22:52:07.276Z,16.00
2022-08-21T22:54:39.788Z,15.90
2022-08-21T22:57:12.262Z,15.80
2022-08-21T22:59:53.184Z,15.80
2022-08-21T23:02:30.232Z,15.80
2022-08-21T23:04:59.233Z,15.80
2022-08-21T23:07:36.452Z,15.90
2022-08-21T23:10:19.337Z,15.80
2022-08-21T23:12:49.388Z,15.90
2022-08-21T23:15:18.594Z,15.80
2022-08-21T23:17:50.184Z,15.60
2022-08-21T23:20:21.440Z,15.70
2022-08-21T23:22:54.525Z,15.70
2022-08-21T23:25:42.890Z,15.60
2022-08-21T23:28:17.044Z,15.60
2022-08-21T23:30:51.764Z,15.80
2022-08-21T23:33:34.335Z,15.60
2022-08-21T23:36:23.212Z,15.50
2022-08-21T23:39:09.577Z,15.40
2022-08-21T23:41:40.058Z,15.40
2022-08-21T23:44:13.388Z,15.30
2022-08-21T23:46:51.208Z,15.40
2022-08-21T23:49:25.603Z,15.30
2022-08-21T23:51:59.149Z,15.30
2022-08-21T23:54:28.551Z,15.30
2022-08-21T23:57:03.639Z,15.10
2022-08-21T23:59:41.216Z,15.10
